Aérodrome :
LOGIN :

S'inscrire | Disclaimer

   EN    FR    IT 

 










Légende :    VFR   VFR Marginal   IFR   IFR Intensif   IFR Très Intensif
Visi : 
Plafond : 
>= 8 km
>= 3000ft
5 à 8 km
1000 à 3000 ft
1500m à 5 km
500 à 1000 ft
800 à 1500m
200 à 500 ft
< 800m
< 200 ft
Symboles :   Orages  Brouillard  Fortes neiges  Fortes précipitations  Vent > 20 kt
SIGMETs :   Divers  Orages  Givrage  Turbulence  Onde Orograph.  Cendres Volcan.







- Altitude de l'aérodrome : 19 ft
- Code IATA : BEB
- Voir les cartes d'approche


EGPL - Benbecula

DERNIER METAR :
  • 210750Z AUTO 17016KT 9999 OVC003/// 10/10 Q1015

METARs EXPIRÉS :
  • 210720Z AUTO 17015KT 9999 -RA OVC002/// 10/10 Q1015
  • 210650Z AUTO 17015KT 9999 OVC002/// 10/10 Q1016
  • 210620Z AUTO 16010KT 9999 OVC003/// 10/10 Q1016 RERA
  • 210550Z AUTO 17010KT 9999 OVC003/// 10/10 Q1017
  • 210520Z AUTO 17008KT 9999 -RA OVC004/// 10/10 Q1017

TAF AMD TAF EGPL
Valide du 21 à 06h jusqu'au 21 à 15h UTC


210606Z 2106/2115 16005KT 9999 SCT008 BKN020
BECMG 2106/2109 18015KT
TEMPO 2106/2115 4000 -RADZ BR BKN005
PROB40
TEMPO 2106/2112 2000 RADZ BKN002
TEMPO 2109/2115 19018G28KT
ATIS : +44 1870 604 818
Pas de NOTAMs connus pour ce terrain.



MET'MAP, la Météo Aéronautique d'un coup d'oeil ! - Copyright ORBIFLY Décembre 2007 - Disclaimer

ORBIFLY MET'MAP TEAM :

Programmation & Développement : Alexandra Zaïnal
Conception & Développement : Baudouin d'Aumeries
Co-Programmation & Développement : Marc-Olivier Méhu
Soutien technique & logistique : Manuel Goepfert

Contact : metmap@orbifly.com




SOURCES & CREDITS :

   NOAA